sensor_id;sensor_type;location;lat;lon;timestamp;pressure;altitude;pressure_sealevel;temperature;humidity
54592;BME280;40488;48.558;18.150;2023-03-22T00:00:08;99511.50;;;9.59;70.62
54592;BME280;40488;48.558;18.150;2023-03-22T00:02:40;99509.78;;;9.55;70.32
54592;BME280;40488;48.558;18.150;2023-03-22T00:05:08;99510.63;;;9.53;70.80
54592;BME280;40488;48.558;18.150;2023-03-22T00:07:38;99500.44;;;9.43;70.50
54592;BME280;40488;48.558;18.150;2023-03-22T00:10:09;99508.13;;;9.45;71.47
54592;BME280;40488;48.558;18.150;2023-03-22T00:12:38;99507.25;;;9.44;71.35
54592;BME280;40488;48.558;18.150;2023-03-22T00:15:07;99505.56;;;9.47;71.67
54592;BME280;40488;48.558;18.150;2023-03-22T00:17:37;99485.19;;;9.47;71.77
54592;BME280;40488;48.558;18.150;2023-03-22T00:20:05;99486.03;;;9.47;71.78
54592;BME280;40488;48.558;18.150;2023-03-22T00:22:35;99475.84;;;9.47;71.94
54592;BME280;40488;48.558;18.150;2023-03-22T00:25:05;99480.09;;;9.50;71.28
54592;BME280;40488;48.558;18.150;2023-03-22T00:27:33;99478.38;;;9.45;71.37
54592;BME280;40488;48.558;18.150;2023-03-22T00:30:02;99482.63;;;9.43;71.01
54592;BME280;40488;48.558;18.150;2023-03-22T00:32:33;99478.38;;;9.49;70.70
54592;BME280;40488;48.558;18.150;2023-03-22T00:35:01;99485.16;;;9.53;71.19
54592;BME280;40488;48.558;18.150;2023-03-22T00:37:30;99485.16;;;9.56;70.79
54592;BME280;40488;48.558;18.150;2023-03-22T00:40:00;99484.31;;;9.55;70.79
54592;BME280;40488;48.558;18.150;2023-03-22T00:42:32;99493.66;;;9.61;71.13
54592;BME280;40488;48.558;18.150;2023-03-22T00:45:00;99493.66;;;9.61;70.66
54592;BME280;40488;48.558;18.150;2023-03-22T00:47:30;99485.16;;;9.56;70.89
54592;BME280;40488;48.558;18.150;2023-03-22T00:49:58;99486.88;;;9.54;71.30
54592;BME280;40488;48.558;18.150;2023-03-22T00:52:27;99479.25;;;9.52;71.34
54592;BME280;40488;48.558;18.150;2023-03-22T00:54:56;99478.38;;;9.45;71.80
54592;BME280;40488;48.558;18.150;2023-03-22T00:57:25;99475.00;;;9.47;71.02
54592;BME280;40488;48.558;18.150;2023-03-22T00:59:56;99475.00;;;9.47;70.68
54592;BME280;40488;48.558;18.150;2023-03-22T01:02:25;99486.88;;;9.41;70.53
54592;BME280;40488;48.558;18.150;2023-03-22T01:04:56;99479.22;;;9.37;71.72
54592;BME280;40488;48.558;18.150;2023-03-22T01:07:25;99478.38;;;9.41;71.18
54592;BME280;40488;48.558;18.150;2023-03-22T01:09:53;99469.88;;;9.43;71.32
54592;BME280;40488;48.558;18.150;2023-03-22T01:12:22;99468.19;;;9.45;71.82
54592;BME280;40488;48.558;18.150;2023-03-22T01:14:50;99473.28;;;9.49;71.76
54592;BME280;40488;48.558;18.150;2023-03-22T01:17:20;99467.34;;;9.50;71.33
54592;BME280;40488;48.558;18.150;2023-03-22T01:19:49;99463.09;;;9.45;71.59
54592;BME280;40488;48.558;18.150;2023-03-22T01:22:17;99463.09;;;9.44;72.24
54592;BME280;40488;48.558;18.150;2023-03-22T01:24:47;99455.44;;;9.45;71.72
54592;BME280;40488;48.558;18.150;2023-03-22T01:27:15;99445.28;;;9.47;72.00
54592;BME280;40488;48.558;18.150;2023-03-22T01:29:44;99451.19;;;9.51;71.77
54592;BME280;40488;48.558;18.150;2023-03-22T01:32:13;99450.34;;;9.53;71.98
54592;BME280;40488;48.558;18.150;2023-03-22T01:34:43;99453.75;;;9.54;71.58
54592;BME280;40488;48.558;18.150;2023-03-22T01:37:11;99447.81;;;9.55;71.96
54592;BME280;40488;48.558;18.150;2023-03-22T01:39:44;99441.03;;;9.54;71.91
54592;BME280;40488;48.558;18.150;2023-03-22T01:42:15;99439.34;;;9.50;71.64
54592;BME280;40488;48.558;18.150;2023-03-22T01:47:28;99441.84;;;9.53;72.62
54592;BME280;40488;48.558;18.150;2023-03-22T01:49:58;99435.94;;;9.54;72.44
54592;BME280;40488;48.558;18.150;2023-03-22T01:52:28;99446.09;;;9.51;72.20
54592;BME280;40488;48.558;18.150;2023-03-22T01:55:02;99452.91;;;9.53;72.79
54592;BME280;40488;48.558;18.150;2023-03-22T01:57:38;99447.81;;;9.53;72.65
54592;BME280;40488;48.558;18.150;2023-03-22T02:00:14;99444.41;;;9.53;72.60
54592;BME280;40488;48.558;18.150;2023-03-22T02:02:56;99444.44;;;9.54;72.64
54592;BME280;40488;48.558;18.150;2023-03-22T02:05:33;99460.56;;;9.50;72.42
54592;BME280;40488;48.558;18.150;2023-03-22T02:08:04;99446.09;;;9.51;72.58
54592;BME280;40488;48.558;18.150;2023-03-22T02:10:45;99442.72;;;9.52;72.27
54592;BME280;40488;48.558;18.150;2023-03-22T02:13:26;99447.81;;;9.53;72.85
54592;BME280;40488;48.558;18.150;2023-03-22T02:16:15;99449.50;;;9.53;72.95
54592;BME280;40488;48.558;18.150;2023-03-22T02:19:04;99446.09;;;9.51;72.62
54592;BME280;40488;48.558;18.150;2023-03-22T02:21:45;99444.41;;;9.47;72.90
54592;BME280;40488;48.558;18.150;2023-03-22T02:27:21;99446.97;;;9.43;72.16
54592;BME280;40488;48.558;18.150;2023-03-22T02:30:06;99451.22;;;9.44;73.24
54592;BME280;40488;48.558;18.150;2023-03-22T02:32:49;99458.88;;;9.48;72.50
54592;BME280;40488;48.558;18.150;2023-03-22T02:35:26;99458.84;;;9.49;72.93
54592;BME280;40488;48.558;18.150;2023-03-22T02:40:48;99458.00;;;9.47;73.07
54592;BME280;40488;48.558;18.150;2023-03-22T02:43:22;99456.31;;;9.49;73.41
54592;BME280;40488;48.558;18.150;2023-03-22T02:45:57;99454.59;;;9.47;73.56
54592;BME280;40488;48.558;18.150;2023-03-22T02:48:29;99454.59;;;9.43;73.55
54592;BME280;40488;48.558;18.150;2023-03-22T02:50:59;99456.28;;;9.38;72.91
54592;BME280;40488;48.558;18.150;2023-03-22T02:53:31;99461.41;;;9.41;73.76
54592;BME280;40488;48.558;18.150;2023-03-22T02:56:04;99459.69;;;9.43;73.52
54592;BME280;40488;48.558;18.150;2023-03-22T02:58:36;99456.28;;;9.38;72.87
54592;BME280;40488;48.558;18.150;2023-03-22T03:01:08;99457.16;;;9.34;73.85
54592;BME280;40488;48.558;18.150;2023-03-22T03:03:37;99458.03;;;9.38;74.02
54592;BME280;40488;48.558;18.150;2023-03-22T03:06:07;99460.53;;;9.36;73.12
54592;BME280;40488;48.558;18.150;2023-03-22T03:08:37;99461.41;;;9.32;73.22
54592;BME280;40488;48.558;18.150;2023-03-22T03:11:08;99462.25;;;9.31;74.15
54592;BME280;40488;48.558;18.150;2023-03-22T03:13:37;99462.25;;;9.31;73.81
54592;BME280;40488;48.558;18.150;2023-03-22T03:16:06;99474.97;;;9.19;74.40
54592;BME280;40488;48.558;18.150;2023-03-22T03:18:41;99474.97;;;9.19;74.61
54592;BME280;40488;48.558;18.150;2023-03-22T03:21:15;99477.50;;;9.18;74.23
54592;BME280;40488;48.558;18.150;2023-03-22T03:23:48;99472.41;;;9.19;74.30
54592;BME280;40488;48.558;18.150;2023-03-22T03:26:22;99483.44;;;9.12;74.61
54592;BME280;40488;48.558;18.150;2023-03-22T03:28:55;99489.38;;;9.11;74.63
54592;BME280;40488;48.558;18.150;2023-03-22T03:31:28;99492.78;;;9.13;74.77
54592;BME280;40488;48.558;18.150;2023-03-22T03:34:02;99493.63;;;9.09;73.86
54592;BME280;40488;48.558;18.150;2023-03-22T03:36:34;99491.91;;;9.05;74.29
54592;BME280;40488;48.558;18.150;2023-03-22T03:39:05;99492.75;;;9.06;74.64
54592;BME280;40488;48.558;18.150;2023-03-22T03:41:38;99488.50;;;9.03;75.23
54592;BME280;40488;48.558;18.150;2023-03-22T03:44:08;99481.72;;;8.96;75.29
54592;BME280;40488;48.558;18.150;2023-03-22T03:46:37;99485.09;;;8.95;74.99
54592;BME280;40488;48.558;18.150;2023-03-22T03:49:06;99493.59;;;8.99;74.99
54592;BME280;40488;48.558;18.150;2023-03-22T03:51:44;99495.31;;;9.09;75.22
54592;BME280;40488;48.558;18.150;2023-03-22T03:54:13;99485.97;;;9.05;75.47
54592;BME280;40488;48.558;18.150;2023-03-22T03:56:43;99491.91;;;9.08;75.23
54592;BME280;40488;48.558;18.150;2023-03-22T03:59:14;99491.09;;;9.14;75.07
54592;BME280;40488;48.558;18.150;2023-03-22T04:01:46;99485.97;;;9.12;75.04
54592;BME280;40488;48.558;18.150;2023-03-22T04:04:28;99487.69;;;9.09;74.99
54592;BME280;40488;48.558;18.150;2023-03-22T04:07:00;99489.34;;;9.05;75.29
54592;BME280;40488;48.558;18.150;2023-03-22T04:09:31;99491.94;;;9.11;75.26
54592;BME280;40488;48.558;18.150;2023-03-22T04:12:13;99489.38;;;9.08;74.78
54592;BME280;40488;48.558;18.150;2023-03-22T04:14:51;99491.09;;;9.09;75.13
54592;BME280;40488;48.558;18.150;2023-03-22T04:17:25;99497.00;;;9.08;75.43
54592;BME280;40488;48.558;18.150;2023-03-22T04:19:55;99494.44;;;9.05;75.52
54592;BME280;40488;48.558;18.150;2023-03-22T04:22:24;99493.59;;;9.03;75.27
54592;BME280;40488;48.558;18.150;2023-03-22T04:24:52;99491.88;;;9.02;75.36
54592;BME280;40488;48.558;18.150;2023-03-22T04:27:24;99491.06;;;9.06;75.09
54592;BME280;40488;48.558;18.150;2023-03-22T04:29:59;99492.75;;;9.06;75.76
54592;BME280;40488;48.558;18.150;2023-03-22T04:32:38;99498.72;;;9.09;74.71
54592;BME280;40488;48.558;18.150;2023-03-22T04:35:07;99500.41;;;9.10;74.85
54592;BME280;40488;48.558;18.150;2023-03-22T04:37:35;99495.31;;;9.07;75.28
54592;BME280;40488;48.558;18.150;2023-03-22T04:40:11;99501.25;;;9.11;75.31
54592;BME280;40488;48.558;18.150;2023-03-22T04:42:55;99492.78;;;9.15;75.60
54592;BME280;40488;48.558;18.150;2023-03-22T04:45:42;99491.09;;;9.09;75.97
54592;BME280;40488;48.558;18.150;2023-03-22T04:48:16;99495.31;;;9.07;75.76
54592;BME280;40488;48.558;18.150;2023-03-22T04:50:50;99491.91;;;9.14;75.81
54592;BME280;40488;48.558;18.150;2023-03-22T04:53:24;99482.59;;;9.13;75.49
54592;BME280;40488;48.558;18.150;2023-03-22T04:56:03;99484.31;;;9.16;75.29
54592;BME280;40488;48.558;18.150;2023-03-22T04:58:35;99490.25;;;9.16;75.85
54592;BME280;40488;48.558;18.150;2023-03-22T05:01:06;99493.63;;;9.15;75.68
54592;BME280;40488;48.558;18.150;2023-03-22T05:03:38;99480.06;;;9.16;75.72
54592;BME280;40488;48.558;18.150;2023-03-22T05:06:07;99484.31;;;9.20;75.97
54592;BME280;40488;48.558;18.150;2023-03-22T05:08:45;99486.03;;;9.26;75.31
54592;BME280;40488;48.558;18.150;2023-03-22T05:11:15;99496.19;;;9.32;75.72
54592;BME280;40488;48.558;18.150;2023-03-22T05:13:59;99495.34;;;9.34;75.85
54592;BME280;40488;48.558;18.150;2023-03-22T05:16:28;99498.75;;;9.36;75.90
54592;BME280;40488;48.558;18.150;2023-03-22T05:18:56;99496.19;;;9.36;75.24
54592;BME280;40488;48.558;18.150;2023-03-22T05:21:25;99490.25;;;9.34;75.24
54592;BME280;40488;48.558;18.150;2023-03-22T05:23:58;99491.97;;;9.35;75.33
54592;BME280;40488;48.558;18.150;2023-03-22T05:26:27;99486.88;;;9.35;75.85
54592;BME280;40488;48.558;18.150;2023-03-22T05:28:55;99480.94;;;9.39;75.58
54592;BME280;40488;48.558;18.150;2023-03-22T05:31:45;99484.34;;;9.35;75.13
54592;BME280;40488;48.558;18.150;2023-03-22T05:34:14;99474.13;;;9.37;75.54
54592;BME280;40488;48.558;18.150;2023-03-22T05:36:42;99476.69;;;9.41;75.15
54592;BME280;40488;48.558;18.150;2023-03-22T05:39:25;99484.31;;;9.46;75.61
54592;BME280;40488;48.558;18.150;2023-03-22T05:41:53;99490.28;;;9.50;75.37
54592;BME280;40488;48.558;18.150;2023-03-22T05:44:22;99494.50;;;9.51;75.24
54592;BME280;40488;48.558;18.150;2023-03-22T05:47:05;99503.03;;;9.54;75.66
54592;BME280;40488;48.558;18.150;2023-03-22T05:49:45;99510.66;;;9.56;75.62
54592;BME280;40488;48.558;18.150;2023-03-22T05:52:15;99512.38;;;9.57;75.67
54592;BME280;40488;48.558;18.150;2023-03-22T05:55:04;99515.75;;;9.59;75.70
54592;BME280;40488;48.558;18.150;2023-03-22T05:57:34;99515.75;;;9.57;75.68
54592;BME280;40488;48.558;18.150;2023-03-22T06:00:06;99517.44;;;9.54;75.12
54592;BME280;40488;48.558;18.150;2023-03-22T06:02:47;99514.88;;;9.51;75.17
54592;BME280;40488;48.558;18.150;2023-03-22T06:05:16;99524.25;;;9.55;75.07
54592;BME280;40488;48.558;18.150;2023-03-22T06:07:48;99527.66;;;9.57;75.75
54592;BME280;40488;48.558;18.150;2023-03-22T06:10:19;99532.75;;;9.60;75.79
54592;BME280;40488;48.558;18.150;2023-03-22T06:12:49;99536.97;;;9.62;75.91
54592;BME280;40488;48.558;18.150;2023-03-22T06:15:24;99536.13;;;9.65;75.77
54592;BME280;40488;48.558;18.150;2023-03-22T06:18:00;99540.38;;;9.67;75.41
54592;BME280;40488;48.558;18.150;2023-03-22T06:20:34;99531.88;;;9.70;75.42
54592;BME280;40488;48.558;18.150;2023-03-22T06:23:14;99534.44;;;9.73;75.96
54592;BME280;40488;48.558;18.150;2023-03-22T06:25:45;99534.44;;;9.76;75.04
54592;BME280;40488;48.558;18.150;2023-03-22T06:28:15;99536.13;;;9.80;75.79
54592;BME280;40488;48.558;18.150;2023-03-22T06:30:49;99539.53;;;9.82;75.19
54592;BME280;40488;48.558;18.150;2023-03-22T06:33:28;99541.22;;;9.84;75.05
54592;BME280;40488;48.558;18.150;2023-03-22T06:36:02;99546.34;;;9.92;75.74
54592;BME280;40488;48.558;18.150;2023-03-22T06:38:38;99551.44;;;9.92;75.10
54592;BME280;40488;48.558;18.150;2023-03-22T06:41:06;99558.22;;;9.99;75.09
54592;BME280;40488;48.558;18.150;2023-03-22T06:43:35;99559.94;;;10.00;75.15
54592;BME280;40488;48.558;18.150;2023-03-22T06:46:26;99556.53;;;9.95;74.83
54592;BME280;40488;48.558;18.150;2023-03-22T06:49:07;99561.63;;;9.95;74.55
54592;BME280;40488;48.558;18.150;2023-03-22T06:51:35;99556.53;;;9.95;74.59
54592;BME280;40488;48.558;18.150;2023-03-22T06:54:03;99554.84;;;9.97;74.33
54592;BME280;40488;48.558;18.150;2023-03-22T06:56:34;99558.22;;;9.99;74.56
54592;BME280;40488;48.558;18.150;2023-03-22T06:59:02;99553.97;;;9.99;74.63
54592;BME280;40488;48.558;18.150;2023-03-22T07:01:31;99559.91;;;10.03;74.68
54592;BME280;40488;48.558;18.150;2023-03-22T07:03:59;99563.34;;;10.05;74.23
54592;BME280;40488;48.558;18.150;2023-03-22T07:06:29;99558.25;;;10.05;74.72
54592;BME280;40488;48.558;18.150;2023-03-22T07:09:00;99565.03;;;10.06;74.39
54592;BME280;40488;48.558;18.150;2023-03-22T07:11:33;99564.22;;;10.12;74.03
54592;BME280;40488;48.558;18.150;2023-03-22T07:14:02;99557.41;;;10.14;74.42
54592;BME280;40488;48.558;18.150;2023-03-22T07:16:42;99565.06;;;10.12;74.23
54592;BME280;40488;48.558;18.150;2023-03-22T07:19:10;99569.31;;;10.16;74.46
54592;BME280;40488;48.558;18.150;2023-03-22T07:21:40;99561.66;;;10.15;74.05
54592;BME280;40488;48.558;18.150;2023-03-22T07:24:11;99573.56;;;10.19;74.35
54592;BME280;40488;48.558;18.150;2023-03-22T07:26:40;99568.44;;;10.25;74.18
54592;BME280;40488;48.558;18.150;2023-03-22T07:29:14;99555.69;;;10.20;73.94
54592;BME280;40488;48.558;18.150;2023-03-22T07:31:43;99554.84;;;10.18;74.13
54592;BME280;40488;48.558;18.150;2023-03-22T07:34:22;99562.50;;;10.20;74.02
54592;BME280;40488;48.558;18.150;2023-03-22T07:37:05;99553.97;;;10.25;74.26
54592;BME280;40488;48.558;18.150;2023-03-22T07:39:35;99562.47;;;10.38;73.58
54592;BME280;40488;48.558;18.150;2023-03-22T07:42:05;99556.50;;;10.40;73.24
54592;BME280;40488;48.558;18.150;2023-03-22T07:44:59;99556.47;;;10.46;73.71
54592;BME280;40488;48.558;18.150;2023-03-22T07:47:40;99557.34;;;10.53;73.27
54592;BME280;40488;48.558;18.150;2023-03-22T07:50:14;99566.66;;;10.61;73.11
54592;BME280;40488;48.558;18.150;2023-03-22T07:52:49;99562.38;;;10.68;73.17
54592;BME280;40488;48.558;18.150;2023-03-22T07:55:18;99556.44;;;10.67;72.52
54592;BME280;40488;48.558;18.150;2023-03-22T07:57:46;99563.22;;;10.71;72.34
54592;BME280;40488;48.558;18.150;2023-03-22T08:00:15;99556.41;;;10.80;72.68
54592;BME280;40488;48.558;18.150;2023-03-22T08:02:55;99557.22;;;10.86;72.19
54592;BME280;40488;48.558;18.150;2023-03-22T08:05:44;99562.31;;;10.91;72.14
54592;BME280;40488;48.558;18.150;2023-03-22T08:08:15;99561.47;;;10.89;71.40
54592;BME280;40488;48.558;18.150;2023-03-22T08:10:47;99556.34;;;10.93;71.60
54592;BME280;40488;48.558;18.150;2023-03-22T08:13:16;99549.53;;;10.95;71.27
54592;BME280;40488;48.558;18.150;2023-03-22T08:15:45;99551.16;;;11.04;71.42
54592;BME280;40488;48.558;18.150;2023-03-22T08:18:13;99548.59;;;11.10;70.79
54592;BME280;40488;48.558;18.150;2023-03-22T08:20:43;99547.72;;;11.14;70.96
54592;BME280;40488;48.558;18.150;2023-03-22T08:23:20;99547.66;;;11.23;70.83
54592;BME280;40488;48.558;18.150;2023-03-22T08:26:15;99552.72;;;11.30;70.37
54592;BME280;40488;48.558;18.150;2023-03-22T08:28:45;99556.94;;;11.43;70.69
54592;BME280;40488;48.558;18.150;2023-03-22T08:31:14;99562.75;;;11.62;70.98
54592;BME280;40488;48.558;18.150;2023-03-22T08:33:45;99563.56;;;11.67;70.65
54592;BME280;40488;48.558;18.150;2023-03-22T08:36:15;99565.31;;;11.70;70.49
54592;BME280;40488;48.558;18.150;2023-03-22T08:38:50;99562.69;;;11.80;70.30
54592;BME280;40488;48.558;18.150;2023-03-22T08:41:28;99560.00;;;11.91;70.26
54592;BME280;40488;48.558;18.150;2023-03-22T08:43:57;99560.81;;;11.97;69.90
54592;BME280;40488;48.558;18.150;2023-03-22T08:46:25;99563.31;;;12.06;70.00
54592;BME280;40488;48.558;18.150;2023-03-22T08:48:54;99563.22;;;12.14;69.73
54592;BME280;40488;48.558;18.150;2023-03-22T08:51:33;99563.97;;;12.27;68.87
54592;BME280;40488;48.558;18.150;2023-03-22T08:54:13;99565.63;;;12.32;68.46
54592;BME280;40488;48.558;18.150;2023-03-22T08:56:53;99556.16;;;12.40;67.97
54592;BME280;40488;48.558;18.150;2023-03-22T08:59:33;99560.41;;;12.43;67.54
54592;BME280;40488;48.558;18.150;2023-03-22T09:02:22;99557.72;;;12.53;67.28
54592;BME280;40488;48.558;18.150;2023-03-22T09:04:51;99548.25;;;12.60;66.76
54592;BME280;40488;48.558;18.150;2023-03-22T09:07:20;99554.16;;;12.68;66.56
54592;BME280;40488;48.558;18.150;2023-03-22T09:10:02;99554.94;;;12.73;66.00
54592;BME280;40488;48.558;18.150;2023-03-22T09:12:34;99550.72;;;12.69;65.40
54592;BME280;40488;48.558;18.150;2023-03-22T09:15:03;99546.44;;;12.69;65.36
54592;BME280;40488;48.558;18.150;2023-03-22T09:17:36;99552.41;;;12.70;64.99
54592;BME280;40488;48.558;18.150;2023-03-22T09:20:05;99553.22;;;12.75;64.50
54592;BME280;40488;48.558;18.150;2023-03-22T09:22:42;99551.41;;;12.83;65.07
54592;BME280;40488;48.558;18.150;2023-03-22T09:25:14;99545.31;;;12.92;64.68
54592;BME280;40488;48.558;18.150;2023-03-22T09:27:46;99546.09;;;12.98;64.61
54592;BME280;40488;48.558;18.150;2023-03-22T09:30:15;99540.94;;;13.01;64.50
54592;BME280;40488;48.558;18.150;2023-03-22T09:32:44;99551.94;;;13.11;64.59
54592;BME280;40488;48.558;18.150;2023-03-22T09:35:15;99545.91;;;13.16;64.35
54592;BME280;40488;48.558;18.150;2023-03-22T09:37:55;99547.56;;;13.17;64.21
54592;BME280;40488;48.558;18.150;2023-03-22T09:40:27;99550.94;;;13.22;64.27
54592;BME280;40488;48.558;18.150;2023-03-22T09:42:58;99550.81;;;13.31;64.16
54592;BME280;40488;48.558;18.150;2023-03-22T09:45:30;99543.03;;;13.37;64.07
54592;BME280;40488;48.558;18.150;2023-03-22T09:48:05;99547.31;;;13.38;63.66
54592;BME280;40488;48.558;18.150;2023-03-22T09:50:43;99547.16;;;13.48;63.73
54592;BME280;40488;48.558;18.150;2023-03-22T09:53:12;99543.72;;;13.49;63.47
54592;BME280;40488;48.558;18.150;2023-03-22T09:55:44;99542.13;;;13.41;63.02
54592;BME280;40488;48.558;18.150;2023-03-22T09:58:16;99537.72;;;13.50;62.73
54592;BME280;40488;48.558;18.150;2023-03-22T10:00:49;99536.88;;;13.51;62.80
54592;BME280;40488;48.558;18.150;2023-03-22T10:03:22;99531.69;;;13.54;62.83
54592;BME280;40488;48.558;18.150;2023-03-22T10:05:56;99531.53;;;13.64;63.11
54592;BME280;40488;48.558;18.150;2023-03-22T10:08:32;99531.44;;;13.69;63.12
54592;BME280;40488;48.558;18.150;2023-03-22T10:11:08;99529.59;;;13.78;62.55
54592;BME280;40488;48.558;18.150;2023-03-22T10:13:44;99534.47;;;13.92;62.52
54592;BME280;40488;48.558;18.150;2023-03-22T10:16:15;99539.47;;;14.01;61.96
54592;BME280;40488;48.558;18.150;2023-03-22T10:18:50;99532.47;;;14.09;62.10
54592;BME280;40488;48.558;18.150;2023-03-22T10:21:19;99530.69;;;14.14;61.46
54592;BME280;40488;48.558;18.150;2023-03-22T10:23:49;99535.59;;;14.26;61.73
54592;BME280;40488;48.558;18.150;2023-03-22T10:26:21;99526.94;;;14.33;60.97
54592;BME280;40488;48.558;18.150;2023-03-22T10:28:53;99534.50;;;14.41;61.01
54592;BME280;40488;48.558;18.150;2023-03-22T10:31:27;99525.09;;;14.41;60.69
54592;BME280;40488;48.558;18.150;2023-03-22T10:33:57;99526.63;;;14.51;60.20
54592;BME280;40488;48.558;18.150;2023-03-22T10:36:27;99529.94;;;14.56;59.79
54592;BME280;40488;48.558;18.150;2023-03-22T10:39:02;99528.19;;;14.58;59.66
54592;BME280;40488;48.558;18.150;2023-03-22T10:41:33;99522.97;;;14.61;59.25
54592;BME280;40488;48.558;18.150;2023-03-22T10:44:03;99524.28;;;14.81;59.05
54592;BME280;40488;48.558;18.150;2023-03-22T10:46:34;99519.00;;;14.90;58.41
54592;BME280;40488;48.558;18.150;2023-03-22T10:49:04;99521.97;;;15.10;58.81
54592;BME280;40488;48.558;18.150;2023-03-22T10:51:34;99520.72;;;15.27;58.63
54592;BME280;40488;48.558;18.150;2023-03-22T10:54:09;99519.66;;;15.36;58.83
54592;BME280;40488;48.558;18.150;2023-03-22T10:56:41;99515.66;;;15.24;57.94
54592;BME280;40488;48.558;18.150;2023-03-22T11:01:55;99508.94;;;15.57;58.14
54592;BME280;40488;48.558;18.150;2023-03-22T11:04:23;99502.03;;;15.59;58.22
54592;BME280;40488;48.558;18.150;2023-03-22T11:06:53;99507.63;;;15.75;58.59
54592;BME280;40488;48.558;18.150;2023-03-22T11:09:23;99496.59;;;15.71;57.77
54592;BME280;40488;48.558;18.150;2023-03-22T11:11:54;99501.00;;;15.65;57.22
54592;BME280;40488;48.558;18.150;2023-03-22T11:14:25;99499.34;;;15.64;57.10
54592;BME280;40488;48.558;18.150;2023-03-22T11:16:55;99493.41;;;15.60;57.40
54592;BME280;40488;48.558;18.150;2023-03-22T11:19:26;99493.13;;;15.72;57.28
54592;BME280;40488;48.558;18.150;2023-03-22T11:21:56;99492.88;;;15.81;57.75
54592;BME280;40488;48.558;18.150;2023-03-22T11:24:25;99493.47;;;15.92;57.24
54592;BME280;40488;48.558;18.150;2023-03-22T11:27:03;99489.56;;;16.10;57.72
54592;BME280;40488;48.558;18.150;2023-03-22T11:29:38;99486.97;;;16.12;56.89
54592;BME280;40488;48.558;18.150;2023-03-22T11:32:18;99480.28;;;16.04;56.12
54592;BME280;40488;48.558;18.150;2023-03-22T11:34:49;99487.09;;;16.05;55.51
54592;BME280;40488;48.558;18.150;2023-03-22T11:37:26;99481.97;;;16.05;55.32
54592;BME280;40488;48.558;18.150;2023-03-22T11:39:58;99477.59;;;16.09;55.37
54592;BME280;40488;48.558;18.150;2023-03-22T11:42:28;99469.06;;;16.07;55.01
54592;BME280;40488;48.558;18.150;2023-03-22T11:45:00;99466.63;;;16.02;55.19
54592;BME280;40488;48.558;18.150;2023-03-22T11:47:30;99464.66;;;16.10;55.18
54592;BME280;40488;48.558;18.150;2023-03-22T11:49:59;99465.25;;;16.22;54.45
54592;BME280;40488;48.558;18.150;2023-03-22T11:52:31;99461.63;;;16.29;54.44
54592;BME280;40488;48.558;18.150;2023-03-22T11:55:00;99467.38;;;16.37;54.14
54592;BME280;40488;48.558;18.150;2023-03-22T11:57:30;99459.38;;;16.17;53.37
54592;BME280;40488;48.558;18.150;2023-03-22T12:00:02;99461.16;;;16.15;53.78
54592;BME280;40488;48.558;18.150;2023-03-22T12:02:40;99456.47;;;16.27;53.64
54592;BME280;40488;48.558;18.150;2023-03-22T12:05:10;99454.50;;;16.37;53.36
54592;BME280;40488;48.558;18.150;2023-03-22T12:07:40;99455.06;;;16.48;53.16
54592;BME280;40488;48.558;18.150;2023-03-22T12:10:11;99457.50;;;16.54;52.78
54592;BME280;40488;48.558;18.150;2023-03-22T12:12:44;99446.53;;;16.77;52.74
54592;BME280;40488;48.558;18.150;2023-03-22T12:15:14;99449.63;;;17.15;52.33
54592;BME280;40488;48.558;18.150;2023-03-22T12:17:47;99447.47;;;17.29;52.17
54592;BME280;40488;48.558;18.150;2023-03-22T12:20:20;99443.13;;;17.30;51.37
54592;BME280;40488;48.558;18.150;2023-03-22T12:22:49;99444.19;;;17.24;51.52
54592;BME280;40488;48.558;18.150;2023-03-22T12:25:19;99437.19;;;17.28;51.65
54592;BME280;40488;48.558;18.150;2023-03-22T12:27:51;99435.16;;;17.37;51.33
54592;BME280;40488;48.558;18.150;2023-03-22T12:30:21;99434.38;;;17.62;51.37
54592;BME280;40488;48.558;18.150;2023-03-22T12:32:52;99426.31;;;17.71;50.78
54592;BME280;40488;48.558;18.150;2023-03-22T12:35:25;99427.66;;;17.58;50.58
54592;BME280;40488;48.558;18.150;2023-03-22T12:37:55;99420.09;;;17.52;50.61
54592;BME280;40488;48.558;18.150;2023-03-22T12:40:25;99415.22;;;17.69;50.77
54592;BME280;40488;48.558;18.150;2023-03-22T12:42:59;99411.59;;;17.99;50.78
54592;BME280;40488;48.558;18.150;2023-03-22T12:45:30;99410.06;;;18.18;50.25
54592;BME280;40488;48.558;18.150;2023-03-22T12:47:59;99409.38;;;18.13;50.05
54592;BME280;40488;48.558;18.150;2023-03-22T12:50:32;99405.56;;;18.23;49.96
54592;BME280;40488;48.558;18.150;2023-03-22T12:53:02;99412.88;;;18.35;49.91
54592;BME280;40488;48.558;18.150;2023-03-22T12:55:33;99414.63;;;18.33;49.60
54592;BME280;40488;48.558;18.150;2023-03-22T12:58:05;99404.09;;;18.39;49.26
54592;BME280;40488;48.558;18.150;2023-03-22T13:00:35;99395.91;;;18.28;49.32
54592;BME280;40488;48.558;18.150;2023-03-22T13:03:06;99397.91;;;18.20;49.41
54592;BME280;40488;48.558;18.150;2023-03-22T13:05:36;99399.53;;;18.23;50.00
54592;BME280;40488;48.558;18.150;2023-03-22T13:08:05;99391.84;;;18.21;49.63
54592;BME280;40488;48.558;18.150;2023-03-22T13:10:46;99390.59;;;18.31;49.55
54592;BME280;40488;48.558;18.150;2023-03-22T13:13:30;99379.81;;;18.43;49.18
54592;BME280;40488;48.558;18.150;2023-03-22T13:16:00;99379.16;;;18.61;49.47
54592;BME280;40488;48.558;18.150;2023-03-22T13:18:36;99386.97;;;18.60;49.59
54592;BME280;40488;48.558;18.150;2023-03-22T13:21:12;99387.72;;;18.63;49.57
54592;BME280;40488;48.558;18.150;2023-03-22T13:26:21;99378.91;;;18.21;49.62
54592;BME280;40488;48.558;18.150;2023-03-22T13:28:56;99380.16;;;18.11;50.23
54592;BME280;40488;48.558;18.150;2023-03-22T13:31:32;99376.28;;;18.23;50.30
54592;BME280;40488;48.558;18.150;2023-03-22T13:34:03;99373.28;;;18.33;50.16
54592;BME280;40488;48.558;18.150;2023-03-22T13:36:31;99369.81;;;18.34;49.95